sensor_id;sensor_type;location;lat;lon;timestamp;temperature;humidity
20885;DHT22;10602;48.000;9.654;2022-12-24T00:00:19;10.20;99.90
20885;DHT22;10602;48.000;9.654;2022-12-24T00:02:47;10.20;99.90
20885;DHT22;10602;48.000;9.654;2022-12-24T00:05:15;10.10;99.90
20885;DHT22;10602;48.000;9.654;2022-12-24T00:07:42;10.10;99.90
20885;DHT22;10602;48.000;9.654;2022-12-24T00:10:10;10.00;99.90
20885;DHT22;10602;48.000;9.654;2022-12-24T00:12:38;10.00;99.90
20885;DHT22;10602;48.000;9.654;2022-12-24T00:15:06;9.80;99.90
20885;DHT22;10602;48.000;9.654;2022-12-24T00:17:34;9.80;99.90
20885;DHT22;10602;48.000;9.654;2022-12-24T00:20:02;9.80;99.90
20885;DHT22;10602;48.000;9.654;2022-12-24T00:22:30;9.80;99.90
20885;DHT22;10602;48.000;9.654;2022-12-24T00:24:57;9.80;99.90
20885;DHT22;10602;48.000;9.654;2022-12-24T00:27:25;9.80;99.90
20885;DHT22;10602;48.000;9.654;2022-12-24T00:29:52;9.80;99.90
20885;DHT22;10602;48.000;9.654;2022-12-24T00:32:20;9.70;99.90
20885;DHT22;10602;48.000;9.654;2022-12-24T00:34:47;9.70;99.90
20885;DHT22;10602;48.000;9.654;2022-12-24T00:37:15;9.70;99.90
20885;DHT22;10602;48.000;9.654;2022-12-24T00:39:42;9.70;99.90
20885;DHT22;10602;48.000;9.654;2022-12-24T00:42:10;9.80;99.90
20885;DHT22;10602;48.000;9.654;2022-12-24T00:44:37;9.80;99.90
20885;DHT22;10602;48.000;9.654;2022-12-24T00:47:05;9.80;99.90
20885;DHT22;10602;48.000;9.654;2022-12-24T00:49:32;9.80;99.90
20885;DHT22;10602;48.000;9.654;2022-12-24T00:52:00;9.80;99.90
20885;DHT22;10602;48.000;9.654;2022-12-24T00:54:28;9.80;99.90
20885;DHT22;10602;48.000;9.654;2022-12-24T00:56:56;9.80;99.90
20885;DHT22;10602;48.000;9.654;2022-12-24T00:59:23;9.80;99.90
20885;DHT22;10602;48.000;9.654;2022-12-24T01:01:51;9.80;99.90
20885;DHT22;10602;48.000;9.654;2022-12-24T01:04:18;9.80;99.90
20885;DHT22;10602;48.000;9.654;2022-12-24T01:07:03;9.80;99.90
20885;DHT22;10602;48.000;9.654;2022-12-24T01:09:31;9.80;99.90
20885;DHT22;10602;48.000;9.654;2022-12-24T01:11:58;9.70;99.90
20885;DHT22;10602;48.000;9.654;2022-12-24T01:14:26;9.70;99.90
20885;DHT22;10602;48.000;9.654;2022-12-24T01:16:53;9.70;99.90
20885;DHT22;10602;48.000;9.654;2022-12-24T01:19:21;9.70;99.90
20885;DHT22;10602;48.000;9.654;2022-12-24T01:21:48;9.70;99.90
20885;DHT22;10602;48.000;9.654;2022-12-24T01:24:16;9.70;99.90
20885;DHT22;10602;48.000;9.654;2022-12-24T01:26:43;9.70;99.90
20885;DHT22;10602;48.000;9.654;2022-12-24T01:29:11;9.70;99.90
20885;DHT22;10602;48.000;9.654;2022-12-24T01:31:38;9.80;99.90
20885;DHT22;10602;48.000;9.654;2022-12-24T01:34:06;9.80;99.90
20885;DHT22;10602;48.000;9.654;2022-12-24T01:36:34;9.80;99.90
20885;DHT22;10602;48.000;9.654;2022-12-24T01:39:02;9.80;99.90
20885;DHT22;10602;48.000;9.654;2022-12-24T01:41:30;9.80;99.90
20885;DHT22;10602;48.000;9.654;2022-12-24T01:44:25;9.80;99.90
20885;DHT22;10602;48.000;9.654;2022-12-24T01:46:56;9.80;99.90
20885;DHT22;10602;48.000;9.654;2022-12-24T01:49:24;9.80;99.90
20885;DHT22;10602;48.000;9.654;2022-12-24T01:51:55;9.80;99.90
20885;DHT22;10602;48.000;9.654;2022-12-24T01:54:34;9.80;99.90
20885;DHT22;10602;48.000;9.654;2022-12-24T01:57:07;9.80;99.90
20885;DHT22;10602;48.000;9.654;2022-12-24T01:59:36;9.70;99.90
20885;DHT22;10602;48.000;9.654;2022-12-24T02:02:05;9.70;99.90
20885;DHT22;10602;48.000;9.654;2022-12-24T02:04:42;9.70;99.90
20885;DHT22;10602;48.000;9.654;2022-12-24T02:07:09;9.70;99.90
20885;DHT22;10602;48.000;9.654;2022-12-24T02:09:37;9.60;99.90
20885;DHT22;10602;48.000;9.654;2022-12-24T02:12:05;9.50;99.90
20885;DHT22;10602;48.000;9.654;2022-12-24T02:14:34;9.50;99.90
20885;DHT22;10602;48.000;9.654;2022-12-24T02:17:32;9.50;99.90
20885;DHT22;10602;48.000;9.654;2022-12-24T02:26:15;9.50;99.90
20885;DHT22;10602;48.000;9.654;2022-12-24T02:31:34;9.50;99.90
20885;DHT22;10602;48.000;9.654;2022-12-24T02:36:42;9.50;99.90
20885;DHT22;10602;48.000;9.654;2022-12-24T02:39:18;9.50;99.90
20885;DHT22;10602;48.000;9.654;2022-12-24T02:41:43;9.50;99.90
20885;DHT22;10602;48.000;9.654;2022-12-24T02:44:32;9.60;99.90
20885;DHT22;10602;48.000;9.654;2022-12-24T02:47:00;9.60;99.90
20885;DHT22;10602;48.000;9.654;2022-12-24T02:49:29;9.60;99.90
20885;DHT22;10602;48.000;9.654;2022-12-24T02:51:56;9.60;99.90
20885;DHT22;10602;48.000;9.654;2022-12-24T02:54:24;9.60;99.90
20885;DHT22;10602;48.000;9.654;2022-12-24T02:57:18;9.50;99.90
20885;DHT22;10602;48.000;9.654;2022-12-24T03:05:25;9.40;99.90
20885;DHT22;10602;48.000;9.654;2022-12-24T03:10:41;9.40;99.90
20885;DHT22;10602;48.000;9.654;2022-12-24T03:13:09;9.50;99.90
20885;DHT22;10602;48.000;9.654;2022-12-24T03:15:37;9.60;99.90
20885;DHT22;10602;48.000;9.654;2022-12-24T03:18:08;9.60;99.90
20885;DHT22;10602;48.000;9.654;2022-12-24T03:20:39;9.60;99.90
20885;DHT22;10602;48.000;9.654;2022-12-24T03:23:07;9.60;99.90
20885;DHT22;10602;48.000;9.654;2022-12-24T03:25:37;9.50;99.90
20885;DHT22;10602;48.000;9.654;2022-12-24T03:28:07;9.50;99.90
20885;DHT22;10602;48.000;9.654;2022-12-24T03:30:40;9.50;99.90
20885;DHT22;10602;48.000;9.654;2022-12-24T03:33:08;9.50;99.90
20885;DHT22;10602;48.000;9.654;2022-12-24T03:35:36;9.50;99.90
20885;DHT22;10602;48.000;9.654;2022-12-24T03:38:03;9.50;99.90
20885;DHT22;10602;48.000;9.654;2022-12-24T03:40:31;9.50;99.90
20885;DHT22;10602;48.000;9.654;2022-12-24T03:42:58;9.50;99.90
20885;DHT22;10602;48.000;9.654;2022-12-24T03:45:26;9.50;99.90
20885;DHT22;10602;48.000;9.654;2022-12-24T03:47:54;9.60;99.90
20885;DHT22;10602;48.000;9.654;2022-12-24T03:50:21;9.60;99.90
20885;DHT22;10602;48.000;9.654;2022-12-24T03:52:48;9.60;99.90
20885;DHT22;10602;48.000;9.654;2022-12-24T03:55:16;9.60;99.90
20885;DHT22;10602;48.000;9.654;2022-12-24T03:57:44;9.70;99.90
20885;DHT22;10602;48.000;9.654;2022-12-24T04:00:12;9.60;99.90
20885;DHT22;10602;48.000;9.654;2022-12-24T04:02:39;9.60;99.90
20885;DHT22;10602;48.000;9.654;2022-12-24T04:05:08;9.60;99.90
20885;DHT22;10602;48.000;9.654;2022-12-24T04:07:36;9.60;99.90
20885;DHT22;10602;48.000;9.654;2022-12-24T04:10:04;9.60;99.90
20885;DHT22;10602;48.000;9.654;2022-12-24T04:12:32;9.60;99.90
20885;DHT22;10602;48.000;9.654;2022-12-24T04:14:59;9.70;99.90
20885;DHT22;10602;48.000;9.654;2022-12-24T04:17:27;9.60;99.90
20885;DHT22;10602;48.000;9.654;2022-12-24T04:19:55;9.60;99.90
20885;DHT22;10602;48.000;9.654;2022-12-24T04:22:22;9.60;99.90
20885;DHT22;10602;48.000;9.654;2022-12-24T04:24:50;9.50;99.90
20885;DHT22;10602;48.000;9.654;2022-12-24T04:27:17;9.50;99.90
20885;DHT22;10602;48.000;9.654;2022-12-24T04:29:45;9.50;99.90
20885;DHT22;10602;48.000;9.654;2022-12-24T04:32:12;9.50;99.90
20885;DHT22;10602;48.000;9.654;2022-12-24T04:34:40;9.40;99.90
20885;DHT22;10602;48.000;9.654;2022-12-24T04:37:07;9.40;99.90
20885;DHT22;10602;48.000;9.654;2022-12-24T04:39:35;9.40;99.90
20885;DHT22;10602;48.000;9.654;2022-12-24T04:42:02;9.40;99.90
20885;DHT22;10602;48.000;9.654;2022-12-24T04:44:30;9.40;99.90
20885;DHT22;10602;48.000;9.654;2022-12-24T04:46:57;9.40;99.90
20885;DHT22;10602;48.000;9.654;2022-12-24T04:49:25;9.30;99.90
20885;DHT22;10602;48.000;9.654;2022-12-24T04:51:52;9.30;99.90
20885;DHT22;10602;48.000;9.654;2022-12-24T04:54:20;9.30;99.90
20885;DHT22;10602;48.000;9.654;2022-12-24T04:56:47;9.30;99.90
20885;DHT22;10602;48.000;9.654;2022-12-24T04:59:15;9.30;99.90
20885;DHT22;10602;48.000;9.654;2022-12-24T05:01:42;9.20;99.90
20885;DHT22;10602;48.000;9.654;2022-12-24T05:04:10;9.20;99.90
20885;DHT22;10602;48.000;9.654;2022-12-24T05:06:37;9.20;99.90
20885;DHT22;10602;48.000;9.654;2022-12-24T05:09:05;9.20;99.90
20885;DHT22;10602;48.000;9.654;2022-12-24T05:11:32;9.20;99.90
20885;DHT22;10602;48.000;9.654;2022-12-24T05:14:00;9.10;99.90
20885;DHT22;10602;48.000;9.654;2022-12-24T05:16:27;9.20;99.90
20885;DHT22;10602;48.000;9.654;2022-12-24T05:18:55;9.20;99.90
20885;DHT22;10602;48.000;9.654;2022-12-24T05:21:24;9.20;99.90
20885;DHT22;10602;48.000;9.654;2022-12-24T05:23:52;9.20;99.90
20885;DHT22;10602;48.000;9.654;2022-12-24T05:26:45;9.10;99.90
20885;DHT22;10602;48.000;9.654;2022-12-24T05:29:13;9.10;99.90
20885;DHT22;10602;48.000;9.654;2022-12-24T05:31:42;9.20;99.90
20885;DHT22;10602;48.000;9.654;2022-12-24T05:34:12;9.10;99.90
20885;DHT22;10602;48.000;9.654;2022-12-24T05:36:40;9.10;99.90
20885;DHT22;10602;48.000;9.654;2022-12-24T05:39:16;9.10;99.90
20885;DHT22;10602;48.000;9.654;2022-12-24T05:41:44;9.10;99.90
20885;DHT22;10602;48.000;9.654;2022-12-24T05:44:12;9.10;99.90
20885;DHT22;10602;48.000;9.654;2022-12-24T05:46:40;9.00;99.90
20885;DHT22;10602;48.000;9.654;2022-12-24T05:49:07;9.10;99.90
20885;DHT22;10602;48.000;9.654;2022-12-24T05:51:35;9.00;99.90
20885;DHT22;10602;48.000;9.654;2022-12-24T05:54:03;9.00;99.90
20885;DHT22;10602;48.000;9.654;2022-12-24T05:56:31;9.00;99.90
20885;DHT22;10602;48.000;9.654;2022-12-24T05:58:59;9.00;99.90
20885;DHT22;10602;48.000;9.654;2022-12-24T06:01:26;9.00;99.90
20885;DHT22;10602;48.000;9.654;2022-12-24T06:03:55;9.00;99.90
20885;DHT22;10602;48.000;9.654;2022-12-24T06:06:25;9.00;99.90
20885;DHT22;10602;48.000;9.654;2022-12-24T06:08:54;9.00;99.90
20885;DHT22;10602;48.000;9.654;2022-12-24T06:11:24;8.90;99.90
20885;DHT22;10602;48.000;9.654;2022-12-24T06:13:53;8.90;99.90
20885;DHT22;10602;48.000;9.654;2022-12-24T06:16:21;8.90;99.90
20885;DHT22;10602;48.000;9.654;2022-12-24T06:18:49;8.90;99.90
20885;DHT22;10602;48.000;9.654;2022-12-24T06:21:17;8.90;99.90
20885;DHT22;10602;48.000;9.654;2022-12-24T06:23:45;8.80;99.90
20885;DHT22;10602;48.000;9.654;2022-12-24T06:26:16;8.80;99.90
20885;DHT22;10602;48.000;9.654;2022-12-24T06:28:44;8.80;99.90
20885;DHT22;10602;48.000;9.654;2022-12-24T06:31:15;8.80;99.90
20885;DHT22;10602;48.000;9.654;2022-12-24T06:33:42;8.80;99.90
20885;DHT22;10602;48.000;9.654;2022-12-24T06:36:15;8.80;99.90
20885;DHT22;10602;48.000;9.654;2022-12-24T06:38:43;8.70;99.90
20885;DHT22;10602;48.000;9.654;2022-12-24T06:41:11;8.70;99.90
20885;DHT22;10602;48.000;9.654;2022-12-24T06:43:41;8.70;99.90
20885;DHT22;10602;48.000;9.654;2022-12-24T06:46:07;8.60;99.90
20885;DHT22;10602;48.000;9.654;2022-12-24T06:48:35;8.60;99.90
20885;DHT22;10602;48.000;9.654;2022-12-24T06:51:03;8.50;99.90
20885;DHT22;10602;48.000;9.654;2022-12-24T06:53:31;8.60;99.90
20885;DHT22;10602;48.000;9.654;2022-12-24T06:56:08;8.60;99.90
20885;DHT22;10602;48.000;9.654;2022-12-24T06:58:32;8.60;99.90
20885;DHT22;10602;48.000;9.654;2022-12-24T07:01:05;8.60;99.90
20885;DHT22;10602;48.000;9.654;2022-12-24T07:03:33;8.60;99.90
20885;DHT22;10602;48.000;9.654;2022-12-24T07:06:01;8.60;99.90
20885;DHT22;10602;48.000;9.654;2022-12-24T07:08:28;8.60;99.90
20885;DHT22;10602;48.000;9.654;2022-12-24T07:10:58;8.50;99.90
20885;DHT22;10602;48.000;9.654;2022-12-24T07:13:26;8.50;99.90
20885;DHT22;10602;48.000;9.654;2022-12-24T07:15:57;8.50;99.90
20885;DHT22;10602;48.000;9.654;2022-12-24T07:18:25;8.50;99.90
20885;DHT22;10602;48.000;9.654;2022-12-24T07:20:52;8.50;99.90
20885;DHT22;10602;48.000;9.654;2022-12-24T07:23:20;8.50;99.90
20885;DHT22;10602;48.000;9.654;2022-12-24T07:25:48;8.50;99.90
20885;DHT22;10602;48.000;9.654;2022-12-24T07:28:15;8.50;99.90
20885;DHT22;10602;48.000;9.654;2022-12-24T07:30:45;8.40;99.90
20885;DHT22;10602;48.000;9.654;2022-12-24T07:33:14;8.40;99.90
20885;DHT22;10602;48.000;9.654;2022-12-24T07:35:41;8.40;99.90
20885;DHT22;10602;48.000;9.654;2022-12-24T07:38:09;8.30;99.90
20885;DHT22;10602;48.000;9.654;2022-12-24T07:40:36;8.30;99.90
20885;DHT22;10602;48.000;9.654;2022-12-24T07:43:04;8.30;99.90
20885;DHT22;10602;48.000;9.654;2022-12-24T07:45:34;8.30;99.90
20885;DHT22;10602;48.000;9.654;2022-12-24T07:48:02;8.30;99.90
20885;DHT22;10602;48.000;9.654;2022-12-24T07:50:29;8.20;99.90
20885;DHT22;10602;48.000;9.654;2022-12-24T07:52:57;8.10;99.90
20885;DHT22;10602;48.000;9.654;2022-12-24T07:55:24;8.10;99.90
20885;DHT22;10602;48.000;9.654;2022-12-24T07:57:52;8.00;99.90
20885;DHT22;10602;48.000;9.654;2022-12-24T08:00:19;8.00;99.90
20885;DHT22;10602;48.000;9.654;2022-12-24T08:02:47;7.90;99.90
20885;DHT22;10602;48.000;9.654;2022-12-24T08:05:15;7.90;99.90
20885;DHT22;10602;48.000;9.654;2022-12-24T08:07:42;7.80;99.90
20885;DHT22;10602;48.000;9.654;2022-12-24T08:10:10;7.80;99.90
20885;DHT22;10602;48.000;9.654;2022-12-24T08:12:37;7.80;99.90
20885;DHT22;10602;48.000;9.654;2022-12-24T08:15:05;7.70;99.90
20885;DHT22;10602;48.000;9.654;2022-12-24T08:17:33;7.70;99.90
20885;DHT22;10602;48.000;9.654;2022-12-24T08:20:00;7.70;99.90
20885;DHT22;10602;48.000;9.654;2022-12-24T08:22:28;7.70;99.90
20885;DHT22;10602;48.000;9.654;2022-12-24T08:24:55;7.60;99.90
20885;DHT22;10602;48.000;9.654;2022-12-24T08:27:23;7.60;99.90
20885;DHT22;10602;48.000;9.654;2022-12-24T08:29:50;7.60;99.90
20885;DHT22;10602;48.000;9.654;2022-12-24T08:32:18;7.50;99.90
20885;DHT22;10602;48.000;9.654;2022-12-24T08:34:45;7.50;99.90
20885;DHT22;10602;48.000;9.654;2022-12-24T08:37:13;7.50;99.90
20885;DHT22;10602;48.000;9.654;2022-12-24T08:39:40;7.50;99.90
20885;DHT22;10602;48.000;9.654;2022-12-24T08:42:08;7.50;99.90
20885;DHT22;10602;48.000;9.654;2022-12-24T08:44:35;7.50;99.90
20885;DHT22;10602;48.000;9.654;2022-12-24T08:47:03;7.50;99.90
20885;DHT22;10602;48.000;9.654;2022-12-24T08:49:31;7.50;99.90
20885;DHT22;10602;48.000;9.654;2022-12-24T08:51:58;7.50;99.90
20885;DHT22;10602;48.000;9.654;2022-12-24T08:54:26;7.50;99.90
20885;DHT22;10602;48.000;9.654;2022-12-24T08:56:53;7.50;99.90
20885;DHT22;10602;48.000;9.654;2022-12-24T08:59:21;7.50;99.90
20885;DHT22;10602;48.000;9.654;2022-12-24T09:01:48;7.50;99.90
20885;DHT22;10602;48.000;9.654;2022-12-24T09:04:16;7.50;99.90
20885;DHT22;10602;48.000;9.654;2022-12-24T09:06:43;7.50;99.90
20885;DHT22;10602;48.000;9.654;2022-12-24T09:09:11;7.50;99.90
20885;DHT22;10602;48.000;9.654;2022-12-24T09:11:38;7.50;99.90
20885;DHT22;10602;48.000;9.654;2022-12-24T09:14:06;7.50;99.90
20885;DHT22;10602;48.000;9.654;2022-12-24T09:16:33;7.50;99.90
20885;DHT22;10602;48.000;9.654;2022-12-24T09:19:01;7.50;99.90
20885;DHT22;10602;48.000;9.654;2022-12-24T09:21:29;7.60;99.90
20885;DHT22;10602;48.000;9.654;2022-12-24T09:23:57;7.60;99.90
20885;DHT22;10602;48.000;9.654;2022-12-24T09:26:27;7.60;99.90
20885;DHT22;10602;48.000;9.654;2022-12-24T09:28:58;7.70;99.90
20885;DHT22;10602;48.000;9.654;2022-12-24T09:31:27;7.70;99.90
20885;DHT22;10602;48.000;9.654;2022-12-24T09:33:54;7.70;99.90
20885;DHT22;10602;48.000;9.654;2022-12-24T09:36:22;7.80;99.90
20885;DHT22;10602;48.000;9.654;2022-12-24T09:38:49;7.80;99.90
20885;DHT22;10602;48.000;9.654;2022-12-24T09:44:00;7.90;99.90
20885;DHT22;10602;48.000;9.654;2022-12-24T09:46:31;7.90;99.90
20885;DHT22;10602;48.000;9.654;2022-12-24T09:49:09;8.00;99.90
20885;DHT22;10602;48.000;9.654;2022-12-24T09:51:40;8.00;99.90
20885;DHT22;10602;48.000;9.654;2022-12-24T09:56:48;8.10;99.90
20885;DHT22;10602;48.000;9.654;2022-12-24T09:59:32;8.10;99.90
20885;DHT22;10602;48.000;9.654;2022-12-24T10:01:55;8.10;99.90
20885;DHT22;10602;48.000;9.654;2022-12-24T10:04:25;8.10;99.90
20885;DHT22;10602;48.000;9.654;2022-12-24T10:12:27;8.30;99.90
20885;DHT22;10602;48.000;9.654;2022-12-24T10:15:20;8.30;99.90
20885;DHT22;10602;48.000;9.654;2022-12-24T10:20:55;8.30;99.90
20885;DHT22;10602;48.000;9.654;2022-12-24T10:23:48;8.30;99.90
20885;DHT22;10602;48.000;9.654;2022-12-24T10:26:28;8.40;99.90
20885;DHT22;10602;48.000;9.654;2022-12-24T10:29:05;8.30;99.90
20885;DHT22;10602;48.000;9.654;2022-12-24T10:31:40;8.30;99.90
20885;DHT22;10602;48.000;9.654;2022-12-24T10:34:13;8.30;99.90
20885;DHT22;10602;48.000;9.654;2022-12-24T10:36:42;8.20;99.90
20885;DHT22;10602;48.000;9.654;2022-12-24T10:39:15;8.20;99.90
20885;DHT22;10602;48.000;9.654;2022-12-24T10:41:41;8.10;99.90
20885;DHT22;10602;48.000;9.654;2022-12-24T10:44:14;8.10;99.90
20885;DHT22;10602;48.000;9.654;2022-12-24T10:46:40;8.00;99.90
20885;DHT22;10602;48.000;9.654;2022-12-24T10:49:14;7.90;99.90
20885;DHT22;10602;48.000;9.654;2022-12-24T10:51:49;7.80;99.90
20885;DHT22;10602;48.000;9.654;2022-12-24T10:54:20;7.80;99.90
20885;DHT22;10602;48.000;9.654;2022-12-24T10:56:51;7.90;99.90
20885;DHT22;10602;48.000;9.654;2022-12-24T10:59:29;7.90;99.90
20885;DHT22;10602;48.000;9.654;2022-12-24T11:01:59;8.00;99.90
20885;DHT22;10602;48.000;9.654;2022-12-24T11:04:29;7.90;99.90
20885;DHT22;10602;48.000;9.654;2022-12-24T11:07:03;8.00;99.90
20885;DHT22;10602;48.000;9.654;2022-12-24T11:09:37;8.00;99.90
20885;DHT22;10602;48.000;9.654;2022-12-24T11:12:05;8.10;99.90
20885;DHT22;10602;48.000;9.654;2022-12-24T11:14:35;8.10;99.90
20885;DHT22;10602;48.000;9.654;2022-12-24T11:17:05;8.20;99.90
20885;DHT22;10602;48.000;9.654;2022-12-24T11:19:34;8.30;99.90
20885;DHT22;10602;48.000;9.654;2022-12-24T11:25:23;8.20;99.90
20885;DHT22;10602;48.000;9.654;2022-12-24T11:27:48;8.20;99.90
20885;DHT22;10602;48.000;9.654;2022-12-24T11:30:22;8.20;99.90
20885;DHT22;10602;48.000;9.654;2022-12-24T11:35:39;8.10;99.90
20885;DHT22;10602;48.000;9.654;2022-12-24T11:38:14;8.10;99.90
20885;DHT22;10602;48.000;9.654;2022-12-24T11:40:49;8.10;99.90
20885;DHT22;10602;48.000;9.654;2022-12-24T11:43:20;8.10;99.90
20885;DHT22;10602;48.000;9.654;2022-12-24T11:45:53;8.10;99.90
20885;DHT22;10602;48.000;9.654;2022-12-24T11:48:31;8.10;99.90
20885;DHT22;10602;48.000;9.654;2022-12-24T11:51:04;8.10;99.90
20885;DHT22;10602;48.000;9.654;2022-12-24T11:53:40;8.20;99.90
20885;DHT22;10602;48.000;9.654;2022-12-24T11:56:16;8.20;99.90
20885;DHT22;10602;48.000;9.654;2022-12-24T11:58:49;8.30;99.90
20885;DHT22;10602;48.000;9.654;2022-12-24T12:01:33;8.30;99.90
20885;DHT22;10602;48.000;9.654;2022-12-24T12:06:56;8.30;99.90
20885;DHT22;10602;48.000;9.654;2022-12-24T12:09:25;8.40;99.90
20885;DHT22;10602;48.000;9.654;2022-12-24T12:12:04;8.30;99.90
20885;DHT22;10602;48.000;9.654;2022-12-24T12:20:21;8.30;99.90
20885;DHT22;10602;48.000;9.654;2022-12-24T12:25:53;8.30;99.90
20885;DHT22;10602;48.000;9.654;2022-12-24T12:34:01;8.50;99.90
20885;DHT22;10602;48.000;9.654;2022-12-24T12:36:28;8.50;99.90
20885;DHT22;10602;48.000;9.654;2022-12-24T12:38:57;8.40;99.90
20885;DHT22;10602;48.000;9.654;2022-12-24T12:42:06;8.50;99.90
20885;DHT22;10602;48.000;9.654;2022-12-24T12:50:01;8.50;99.90
20885;DHT22;10602;48.000;9.654;2022-12-24T12:52:50;8.40;99.90
20885;DHT22;10602;48.000;9.654;2022-12-24T12:58:00;8.50;99.90
20885;DHT22;10602;48.000;9.654;2022-12-24T13:00:30;8.50;99.90
20885;DHT22;10602;48.000;9.654;2022-12-24T13:06:12;8.40;99.90
20885;DHT22;10602;48.000;9.654;2022-12-24T13:09:06;8.40;99.90
20885;DHT22;10602;48.000;9.654;2022-12-24T17:15:18;7.00;99.90
20885;DHT22;10602;48.000;9.654;2022-12-24T17:17:53;7.00;99.90
20885;DHT22;10602;48.000;9.654;2022-12-24T17:20:19;7.00;99.90
20885;DHT22;10602;48.000;9.654;2022-12-24T17:22:53;7.00;99.90
20885;DHT22;10602;48.000;9.654;2022-12-24T17:25:22;7.00;99.90
20885;DHT22;10602;48.000;9.654;2022-12-24T17:27:50;7.00;99.90
20885;DHT22;10602;48.000;9.654;2022-12-24T17:30:28;7.00;99.90
20885;DHT22;10602;48.000;9.654;2022-12-24T17:32:51;7.00;99.90
20885;DHT22;10602;48.000;9.654;2022-12-24T17:35:34;7.00;99.90
20885;DHT22;10602;48.000;9.654;2022-12-24T17:38:09;6.90;99.90
20885;DHT22;10602;48.000;9.654;2022-12-24T17:41:10;6.90;99.90
20885;DHT22;10602;48.000;9.654;2022-12-24T17:43:38;6.90;99.90
20885;DHT22;10602;48.000;9.654;2022-12-24T17:46:17;6.90;99.90
20885;DHT22;10602;48.000;9.654;2022-12-24T17:48:51;6.90;99.90
20885;DHT22;10602;48.000;9.654;2022-12-24T17:51:20;6.90;99.90
20885;DHT22;10602;48.000;9.654;2022-12-24T17:54:00;6.80;99.90
20885;DHT22;10602;48.000;9.654;2022-12-24T17:56:38;6.80;99.90
20885;DHT22;10602;48.000;9.654;2022-12-24T17:59:11;6.80;99.90
20885;DHT22;10602;48.000;9.654;2022-12-24T18:01:36;6.80;99.90
20885;DHT22;10602;48.000;9.654;2022-12-24T18:04:04;6.70;99.90
20885;DHT22;10602;48.000;9.654;2022-12-24T18:06:37;6.70;99.90
20885;DHT22;10602;48.000;9.654;2022-12-24T18:09:33;6.70;99.90
20885;DHT22;10602;48.000;9.654;2022-12-24T18:14:32;6.60;99.90
20885;DHT22;10602;48.000;9.654;2022-12-24T18:17:23;6.60;99.90
20885;DHT22;10602;48.000;9.654;2022-12-24T18:19:46;6.60;99.90
20885;DHT22;10602;48.000;9.654;2022-12-24T18:22:23;6.60;99.90
20885;DHT22;10602;48.000;9.654;2022-12-24T18:25:01;6.60;99.90
20885;DHT22;10602;48.000;9.654;2022-12-24T18:27:38;6.70;99.90
20885;DHT22;10602;48.000;9.654;2022-12-24T18:30:18;6.70;99.90
20885;DHT22;10602;48.000;9.654;2022-12-24T18:32:44;6.60;99.90
20885;DHT22;10602;48.000;9.654;2022-12-24T18:38:10;6.60;99.90
20885;DHT22;10602;48.000;9.654;2022-12-24T18:40:37;6.60;99.90
20885;DHT22;10602;48.000;9.654;2022-12-24T18:43:05;6.60;99.90
20885;DHT22;10602;48.000;9.654;2022-12-24T18:45:32;6.60;99.90
20885;DHT22;10602;48.000;9.654;2022-12-24T18:48:05;6.60;99.90
20885;DHT22;10602;48.000;9.654;2022-12-24T18:50:32;6.60;99.90
20885;DHT22;10602;48.000;9.654;2022-12-24T18:55:39;6.60;99.90
20885;DHT22;10602;48.000;9.654;2022-12-24T18:58:07;6.60;99.90
20885;DHT22;10602;48.000;9.654;2022-12-24T19:00:39;6.60;99.90
20885;DHT22;10602;48.000;9.654;2022-12-24T19:03:08;6.60;99.90
20885;DHT22;10602;48.000;9.654;2022-12-24T19:05:40;6.50;99.90
20885;DHT22;10602;48.000;9.654;2022-12-24T19:08:09;6.50;99.90
20885;DHT22;10602;48.000;9.654;2022-12-24T19:10:44;6.50;99.90
20885;DHT22;10602;48.000;9.654;2022-12-24T19:13:11;6.50;99.90
20885;DHT22;10602;48.000;9.654;2022-12-24T19:15:39;6.50;99.90
20885;DHT22;10602;48.000;9.654;2022-12-24T19:18:07;6.50;99.90
20885;DHT22;10602;48.000;9.654;2022-12-24T19:20:37;6.40;99.90
20885;DHT22;10602;48.000;9.654;2022-12-24T19:23:06;6.40;99.90
20885;DHT22;10602;48.000;9.654;2022-12-24T19:25:35;6.40;99.90
20885;DHT22;10602;48.000;9.654;2022-12-24T19:28:03;6.40;99.90
20885;DHT22;10602;48.000;9.654;2022-12-24T19:30:33;6.40;99.90
20885;DHT22;10602;48.000;9.654;2022-12-24T19:33:00;6.40;99.90
20885;DHT22;10602;48.000;9.654;2022-12-24T19:35:32;6.40;99.90
20885;DHT22;10602;48.000;9.654;2022-12-24T19:38:00;6.40;99.90
20885;DHT22;10602;48.000;9.654;2022-12-24T19:40:45;6.40;99.90
20885;DHT22;10602;48.000;9.654;2022-12-24T19:43:05;6.40;99.90
20885;DHT22;10602;48.000;9.654;2022-12-24T19:45:32;6.40;99.90
20885;DHT22;10602;48.000;9.654;2022-12-24T19:48:12;6.40;99.90
20885;DHT22;10602;48.000;9.654;2022-12-24T19:50:35;6.40;99.90
20885;DHT22;10602;48.000;9.654;2022-12-24T19:53:04;6.30;99.90
20885;DHT22;10602;48.000;9.654;2022-12-24T19:55:35;6.40;99.90
20885;DHT22;10602;48.000;9.654;2022-12-24T19:58:02;6.40;99.90
20885;DHT22;10602;48.000;9.654;2022-12-24T20:00:30;6.30;99.90
20885;DHT22;10602;48.000;9.654;2022-12-24T20:02:58;6.40;99.90
20885;DHT22;10602;48.000;9.654;2022-12-24T20:05:25;6.40;99.90
20885;DHT22;10602;48.000;9.654;2022-12-24T20:07:55;6.40;99.90
20885;DHT22;10602;48.000;9.654;2022-12-24T20:10:25;6.40;99.90
20885;DHT22;10602;48.000;9.654;2022-12-24T20:12:53;6.30;99.90
20885;DHT22;10602;48.000;9.654;2022-12-24T20:15:21;6.30;99.90
20885;DHT22;10602;48.000;9.654;2022-12-24T20:17:48;6.30;99.90
20885;DHT22;10602;48.000;9.654;2022-12-24T20:20:17;6.30;99.90
20885;DHT22;10602;48.000;9.654;2022-12-24T20:22:45;6.30;99.90
20885;DHT22;10602;48.000;9.654;2022-12-24T20:25:13;6.30;99.90
20885;DHT22;10602;48.000;9.654;2022-12-24T20:27:40;6.30;99.90
20885;DHT22;10602;48.000;9.654;2022-12-24T20:30:08;6.30;99.90
20885;DHT22;10602;48.000;9.654;2022-12-24T20:32:36;6.30;99.90
20885;DHT22;10602;48.000;9.654;2022-12-24T20:35:07;6.30;99.90
20885;DHT22;10602;48.000;9.654;2022-12-24T20:37:35;6.30;99.90
20885;DHT22;10602;48.000;9.654;2022-12-24T20:40:04;6.30;99.90
20885;DHT22;10602;48.000;9.654;2022-12-24T20:42:33;6.40;99.90
20885;DHT22;10602;48.000;9.654;2022-12-24T20:45:03;6.40;99.90
20885;DHT22;10602;48.000;9.654;2022-12-24T20:47:36;6.30;99.90
20885;DHT22;10602;48.000;9.654;2022-12-24T20:50:03;6.40;99.90
20885;DHT22;10602;48.000;9.654;2022-12-24T20:52:39;6.30;99.90
20885;DHT22;10602;48.000;9.654;2022-12-24T20:55:01;6.40;99.90
20885;DHT22;10602;48.000;9.654;2022-12-24T20:57:38;6.40;99.90
20885;DHT22;10602;48.000;9.654;2022-12-24T21:00:03;6.40;99.90
20885;DHT22;10602;48.000;9.654;2022-12-24T21:02:31;6.30;99.90
20885;DHT22;10602;48.000;9.654;2022-12-24T21:05:02;6.40;99.90
20885;DHT22;10602;48.000;9.654;2022-12-24T21:07:30;6.40;99.90
20885;DHT22;10602;48.000;9.654;2022-12-24T21:09:57;6.40;99.90
20885;DHT22;10602;48.000;9.654;2022-12-24T21:12:25;6.40;99.90
20885;DHT22;10602;48.000;9.654;2022-12-24T21:15:11;6.40;99.90
20885;DHT22;10602;48.000;9.654;2022-12-24T21:17:39;6.40;99.90
20885;DHT22;10602;48.000;9.654;2022-12-24T21:20:10;6.40;99.90
20885;DHT22;10602;48.000;9.654;2022-12-24T21:22:45;6.40;99.90